Terminal Aerodrome Forecast
Issued by NWS Upton, NY

Home | Current Version | Previous Version | Text Only | Print | Product List | Glossary On
Versions: 1 2 3 4 5 6 7 8 9 10 11 12 13 14 15 16 17 18 19 20 21 22 23 24 25 26 27 28 29 30 31 32 33 34 35 36 37 38 39 40
000
FTUS41 KOKX 180956 AAB
TAFEWR
TAF AMD
KEWR 180956Z 1810/1912 01008KT 6SM BR OVC004
      TEMPO 1810/1813 3SM BR OVC004
     FM181400 35006KT 6SM BR OVC006
     FM181900 33010KT 6SM BR BKN010 OVC020
     FM182200 34009KT P6SM BKN020 OVC035
     FM190700 VRB05KT P6SM SCT025 OVC050=

USA.gov is the U.S. government's official web portal to all federal, state and local government web resources and services.